sensor_id;sensor_type;location;lat;lon;timestamp;temperature;humidity
10583;DHT22;33679;51.218;6.786;2023-07-13T00:00:19;23.00;99.90
10583;DHT22;33679;51.218;6.786;2023-07-13T00:02:53;23.00;99.90
10583;DHT22;33679;51.218;6.786;2023-07-13T00:05:25;23.00;99.90
10583;DHT22;33679;51.218;6.786;2023-07-13T00:07:58;23.00;99.90
10583;DHT22;33679;51.218;6.786;2023-07-13T00:10:30;23.00;99.90
10583;DHT22;33679;51.218;6.786;2023-07-13T00:13:04;23.00;99.90
10583;DHT22;33679;51.218;6.786;2023-07-13T00:15:37;23.00;99.90
10583;DHT22;33679;51.218;6.786;2023-07-13T00:18:09;23.00;99.90
10583;DHT22;33679;51.218;6.786;2023-07-13T00:20:44;23.00;99.90
10583;DHT22;33679;51.218;6.786;2023-07-13T00:23:16;23.00;99.90
10583;DHT22;33679;51.218;6.786;2023-07-13T00:25:49;22.90;99.90
10583;DHT22;33679;51.218;6.786;2023-07-13T00:28:24;22.90;99.90
10583;DHT22;33679;51.218;6.786;2023-07-13T00:30:56;22.90;99.90
10583;DHT22;33679;51.218;6.786;2023-07-13T00:33:29;22.90;99.90
10583;DHT22;33679;51.218;6.786;2023-07-13T00:36:04;22.90;99.90
10583;DHT22;33679;51.218;6.786;2023-07-13T00:38:37;22.90;99.90
10583;DHT22;33679;51.218;6.786;2023-07-13T00:41:09;22.90;99.90
10583;DHT22;33679;51.218;6.786;2023-07-13T00:43:43;22.90;99.90
10583;DHT22;33679;51.218;6.786;2023-07-13T00:46:25;22.90;99.90
10583;DHT22;33679;51.218;6.786;2023-07-13T00:49:00;22.90;99.90
10583;DHT22;33679;51.218;6.786;2023-07-13T00:51:45;22.80;99.90
10583;DHT22;33679;51.218;6.786;2023-07-13T00:54:26;22.80;99.90
10583;DHT22;33679;51.218;6.786;2023-07-13T00:57:03;22.80;99.90
10583;DHT22;33679;51.218;6.786;2023-07-13T00:59:42;22.80;99.90
10583;DHT22;33679;51.218;6.786;2023-07-13T01:02:18;22.70;99.90
10583;DHT22;33679;51.218;6.786;2023-07-13T01:04:52;22.70;99.90
10583;DHT22;33679;51.218;6.786;2023-07-13T01:07:28;22.70;99.90
10583;DHT22;33679;51.218;6.786;2023-07-13T01:10:03;22.70;99.90
10583;DHT22;33679;51.218;6.786;2023-07-13T01:12:35;22.70;99.90
10583;DHT22;33679;51.218;6.786;2023-07-13T01:18:23;22.60;99.90
10583;DHT22;33679;51.218;6.786;2023-07-13T01:20:59;22.50;99.90
10583;DHT22;33679;51.218;6.786;2023-07-13T01:23:32;22.40;99.90
10583;DHT22;33679;51.218;6.786;2023-07-13T01:26:05;22.40;99.90
10583;DHT22;33679;51.218;6.786;2023-07-13T01:28:38;22.40;99.90
10583;DHT22;33679;51.218;6.786;2023-07-13T01:31:16;22.40;99.90
10583;DHT22;33679;51.218;6.786;2023-07-13T01:33:49;22.40;99.90
10583;DHT22;33679;51.218;6.786;2023-07-13T01:36:23;22.40;99.90
10583;DHT22;33679;51.218;6.786;2023-07-13T01:38:51;22.40;99.90
10583;DHT22;33679;51.218;6.786;2023-07-13T01:41:23;22.30;99.90
10583;DHT22;33679;51.218;6.786;2023-07-13T01:43:58;22.30;99.90
10583;DHT22;33679;51.218;6.786;2023-07-13T01:46:31;22.30;99.90
10583;DHT22;33679;51.218;6.786;2023-07-13T01:49:08;22.30;99.90
10583;DHT22;33679;51.218;6.786;2023-07-13T01:51:41;22.20;99.90
10583;DHT22;33679;51.218;6.786;2023-07-13T01:54:16;22.10;99.90
10583;DHT22;33679;51.218;6.786;2023-07-13T01:56:48;22.10;99.90
10583;DHT22;33679;51.218;6.786;2023-07-13T01:59:21;22.10;99.90
10583;DHT22;33679;51.218;6.786;2023-07-13T02:01:56;22.10;99.90
10583;DHT22;33679;51.218;6.786;2023-07-13T02:04:30;22.10;99.90
10583;DHT22;33679;51.218;6.786;2023-07-13T02:07:04;22.10;99.90
10583;DHT22;33679;51.218;6.786;2023-07-13T02:09:38;22.10;99.90
10583;DHT22;33679;51.218;6.786;2023-07-13T02:12:10;22.10;99.90
10583;DHT22;33679;51.218;6.786;2023-07-13T02:14:44;22.00;99.90
10583;DHT22;33679;51.218;6.786;2023-07-13T02:17:17;22.10;99.90
10583;DHT22;33679;51.218;6.786;2023-07-13T02:19:52;22.00;99.90
10583;DHT22;33679;51.218;6.786;2023-07-13T02:22:26;21.90;99.90
10583;DHT22;33679;51.218;6.786;2023-07-13T02:25:02;21.90;99.90
10583;DHT22;33679;51.218;6.786;2023-07-13T02:27:35;21.90;99.90
10583;DHT22;33679;51.218;6.786;2023-07-13T02:30:11;21.90;99.90
10583;DHT22;33679;51.218;6.786;2023-07-13T02:32:44;21.90;99.90
10583;DHT22;33679;51.218;6.786;2023-07-13T02:35:17;21.80;99.90
10583;DHT22;33679;51.218;6.786;2023-07-13T02:37:51;21.80;99.90
10583;DHT22;33679;51.218;6.786;2023-07-13T02:40:25;21.80;99.90
10583;DHT22;33679;51.218;6.786;2023-07-13T02:43:00;21.80;99.90
10583;DHT22;33679;51.218;6.786;2023-07-13T02:45:36;21.80;99.90
10583;DHT22;33679;51.218;6.786;2023-07-13T02:48:10;21.80;99.90
10583;DHT22;33679;51.218;6.786;2023-07-13T02:50:44;21.80;99.90
10583;DHT22;33679;51.218;6.786;2023-07-13T02:53:20;21.80;99.90
10583;DHT22;33679;51.218;6.786;2023-07-13T02:55:53;21.80;99.90
10583;DHT22;33679;51.218;6.786;2023-07-13T02:58:26;21.70;99.90
10583;DHT22;33679;51.218;6.786;2023-07-13T03:01:05;21.70;99.90
10583;DHT22;33679;51.218;6.786;2023-07-13T03:03:39;21.60;99.90
10583;DHT22;33679;51.218;6.786;2023-07-13T03:06:13;21.70;99.90
10583;DHT22;33679;51.218;6.786;2023-07-13T03:08:55;21.60;99.90
10583;DHT22;33679;51.218;6.786;2023-07-13T03:11:33;21.60;99.90
10583;DHT22;33679;51.218;6.786;2023-07-13T03:14:17;21.50;99.90
10583;DHT22;33679;51.218;6.786;2023-07-13T03:16:50;21.50;99.90
10583;DHT22;33679;51.218;6.786;2023-07-13T03:19:24;21.40;99.90
10583;DHT22;33679;51.218;6.786;2023-07-13T03:21:59;21.40;99.90
10583;DHT22;33679;51.218;6.786;2023-07-13T03:24:34;21.50;99.90
10583;DHT22;33679;51.218;6.786;2023-07-13T03:27:10;21.40;99.90
10583;DHT22;33679;51.218;6.786;2023-07-13T03:29:45;21.40;99.90
10583;DHT22;33679;51.218;6.786;2023-07-13T03:32:22;21.40;99.90
10583;DHT22;33679;51.218;6.786;2023-07-13T03:34:56;21.40;99.90
10583;DHT22;33679;51.218;6.786;2023-07-13T03:37:29;21.40;99.90
10583;DHT22;33679;51.218;6.786;2023-07-13T03:40:04;21.40;99.90
10583;DHT22;33679;51.218;6.786;2023-07-13T03:42:40;21.40;99.90
10583;DHT22;33679;51.218;6.786;2023-07-13T03:45:12;21.40;99.90
10583;DHT22;33679;51.218;6.786;2023-07-13T03:47:45;21.40;99.90
10583;DHT22;33679;51.218;6.786;2023-07-13T03:50:17;21.40;99.90
10583;DHT22;33679;51.218;6.786;2023-07-13T03:52:50;21.50;99.90
10583;DHT22;33679;51.218;6.786;2023-07-13T03:55:24;21.50;99.90
10583;DHT22;33679;51.218;6.786;2023-07-13T03:57:59;21.50;99.90
10583;DHT22;33679;51.218;6.786;2023-07-13T04:00:32;21.40;99.90
10583;DHT22;33679;51.218;6.786;2023-07-13T04:03:06;21.50;99.90
10583;DHT22;33679;51.218;6.786;2023-07-13T04:05:38;21.50;99.90
10583;DHT22;33679;51.218;6.786;2023-07-13T04:08:11;21.60;99.90
10583;DHT22;33679;51.218;6.786;2023-07-13T04:10:46;21.60;99.90
10583;DHT22;33679;51.218;6.786;2023-07-13T04:13:19;21.60;99.90
10583;DHT22;33679;51.218;6.786;2023-07-13T04:15:52;21.60;99.90
10583;DHT22;33679;51.218;6.786;2023-07-13T04:18:24;21.60;99.90
10583;DHT22;33679;51.218;6.786;2023-07-13T04:20:57;21.70;99.90
10583;DHT22;33679;51.218;6.786;2023-07-13T04:23:29;21.80;99.90
10583;DHT22;33679;51.218;6.786;2023-07-13T04:26:05;21.80;99.90
10583;DHT22;33679;51.218;6.786;2023-07-13T04:28:37;21.80;99.90
10583;DHT22;33679;51.218;6.786;2023-07-13T04:31:09;21.90;99.90
10583;DHT22;33679;51.218;6.786;2023-07-13T04:33:42;21.90;99.90
10583;DHT22;33679;51.218;6.786;2023-07-13T04:36:15;21.90;99.90
10583;DHT22;33679;51.218;6.786;2023-07-13T04:38:47;21.90;99.90
10583;DHT22;33679;51.218;6.786;2023-07-13T04:41:21;21.90;99.90
10583;DHT22;33679;51.218;6.786;2023-07-13T04:43:54;21.90;99.90
10583;DHT22;33679;51.218;6.786;2023-07-13T04:46:27;22.00;99.90
10583;DHT22;33679;51.218;6.786;2023-07-13T04:48:59;22.00;99.90
10583;DHT22;33679;51.218;6.786;2023-07-13T04:51:31;22.00;99.90
10583;DHT22;33679;51.218;6.786;2023-07-13T04:54:04;22.10;99.90
10583;DHT22;33679;51.218;6.786;2023-07-13T04:56:40;22.10;99.90
10583;DHT22;33679;51.218;6.786;2023-07-13T04:59:12;22.10;99.90
10583;DHT22;33679;51.218;6.786;2023-07-13T05:01:47;22.20;99.90
10583;DHT22;33679;51.218;6.786;2023-07-13T05:04:19;22.20;99.90
10583;DHT22;33679;51.218;6.786;2023-07-13T05:06:51;22.20;99.90
10583;DHT22;33679;51.218;6.786;2023-07-13T05:09:23;22.30;99.90
10583;DHT22;33679;51.218;6.786;2023-07-13T05:12:00;22.30;99.90
10583;DHT22;33679;51.218;6.786;2023-07-13T05:14:32;22.40;99.90
10583;DHT22;33679;51.218;6.786;2023-07-13T05:17:07;22.50;99.90
10583;DHT22;33679;51.218;6.786;2023-07-13T05:19:40;22.50;99.90
10583;DHT22;33679;51.218;6.786;2023-07-13T05:22:12;22.60;99.90
10583;DHT22;33679;51.218;6.786;2023-07-13T05:24:44;22.70;99.90
10583;DHT22;33679;51.218;6.786;2023-07-13T05:27:18;22.80;99.90
10583;DHT22;33679;51.218;6.786;2023-07-13T05:29:50;22.80;99.90
10583;DHT22;33679;51.218;6.786;2023-07-13T05:32:23;22.90;99.90
10583;DHT22;33679;51.218;6.786;2023-07-13T05:34:55;22.90;99.90
10583;DHT22;33679;51.218;6.786;2023-07-13T05:37:27;23.00;99.90
10583;DHT22;33679;51.218;6.786;2023-07-13T05:40:02;23.10;99.90
10583;DHT22;33679;51.218;6.786;2023-07-13T05:42:38;23.10;99.90
10583;DHT22;33679;51.218;6.786;2023-07-13T05:45:12;23.00;99.90
10583;DHT22;33679;51.218;6.786;2023-07-13T05:47:44;22.90;99.90
10583;DHT22;33679;51.218;6.786;2023-07-13T05:50:16;22.90;99.90
10583;DHT22;33679;51.218;6.786;2023-07-13T05:52:52;23.10;99.90
10583;DHT22;33679;51.218;6.786;2023-07-13T05:55:24;23.60;99.90
10583;DHT22;33679;51.218;6.786;2023-07-13T05:58:00;24.20;99.90
10583;DHT22;33679;51.218;6.786;2023-07-13T06:00:32;25.00;99.90
10583;DHT22;33679;51.218;6.786;2023-07-13T06:03:06;25.60;99.90
10583;DHT22;33679;51.218;6.786;2023-07-13T06:05:39;26.30;99.90
10583;DHT22;33679;51.218;6.786;2023-07-13T06:08:14;26.80;99.90
10583;DHT22;33679;51.218;6.786;2023-07-13T06:10:48;27.30;99.90
10583;DHT22;33679;51.218;6.786;2023-07-13T06:13:23;27.50;99.90
10583;DHT22;33679;51.218;6.786;2023-07-13T06:15:55;27.60;99.90
10583;DHT22;33679;51.218;6.786;2023-07-13T06:18:27;27.80;99.90
10583;DHT22;33679;51.218;6.786;2023-07-13T06:21:00;27.90;99.90
10583;DHT22;33679;51.218;6.786;2023-07-13T06:23:32;27.60;99.90
10583;DHT22;33679;51.218;6.786;2023-07-13T06:26:05;27.30;99.90
10583;DHT22;33679;51.218;6.786;2023-07-13T06:28:39;26.90;99.90
10583;DHT22;33679;51.218;6.786;2023-07-13T06:31:12;26.50;99.90
10583;DHT22;33679;51.218;6.786;2023-07-13T06:33:45;26.30;99.90
10583;DHT22;33679;51.218;6.786;2023-07-13T06:36:18;26.10;99.90
10583;DHT22;33679;51.218;6.786;2023-07-13T06:38:50;25.90;99.90
10583;DHT22;33679;51.218;6.786;2023-07-13T06:41:23;25.70;99.90
10583;DHT22;33679;51.218;6.786;2023-07-13T06:43:58;25.50;99.90
10583;DHT22;33679;51.218;6.786;2023-07-13T06:46:30;25.40;99.90
10583;DHT22;33679;51.218;6.786;2023-07-13T06:49:03;25.20;99.90
10583;DHT22;33679;51.218;6.786;2023-07-13T06:51:35;25.10;99.90
10583;DHT22;33679;51.218;6.786;2023-07-13T06:54:07;24.90;99.90
10583;DHT22;33679;51.218;6.786;2023-07-13T06:56:40;24.80;99.90
10583;DHT22;33679;51.218;6.786;2023-07-13T06:59:13;24.70;99.90
10583;DHT22;33679;51.218;6.786;2023-07-13T07:01:51;24.60;99.90
10583;DHT22;33679;51.218;6.786;2023-07-13T07:04:26;24.40;99.90
10583;DHT22;33679;51.218;6.786;2023-07-13T07:06:58;24.20;99.90
10583;DHT22;33679;51.218;6.786;2023-07-13T07:09:30;24.10;99.90
10583;DHT22;33679;51.218;6.786;2023-07-13T07:12:07;24.00;99.90
10583;DHT22;33679;51.218;6.786;2023-07-13T07:14:41;23.80;99.90
10583;DHT22;33679;51.218;6.786;2023-07-13T07:17:13;23.60;99.90
10583;DHT22;33679;51.218;6.786;2023-07-13T07:19:46;23.50;99.90
10583;DHT22;33679;51.218;6.786;2023-07-13T07:22:18;23.50;99.90
10583;DHT22;33679;51.218;6.786;2023-07-13T07:24:50;23.40;99.90
10583;DHT22;33679;51.218;6.786;2023-07-13T07:27:22;23.40;99.90
10583;DHT22;33679;51.218;6.786;2023-07-13T07:29:56;23.40;99.90
10583;DHT22;33679;51.218;6.786;2023-07-13T07:32:29;23.40;99.90
10583;DHT22;33679;51.218;6.786;2023-07-13T07:35:02;23.40;99.90
10583;DHT22;33679;51.218;6.786;2023-07-13T07:37:34;23.50;99.90
10583;DHT22;33679;51.218;6.786;2023-07-13T07:40:18;23.60;99.90
10583;DHT22;33679;51.218;6.786;2023-07-13T07:42:50;23.70;99.90
10583;DHT22;33679;51.218;6.786;2023-07-13T07:45:24;23.70;99.90
10583;DHT22;33679;51.218;6.786;2023-07-13T07:47:56;23.70;99.90
10583;DHT22;33679;51.218;6.786;2023-07-13T07:50:30;23.70;99.90
10583;DHT22;33679;51.218;6.786;2023-07-13T07:53:03;23.70;99.90
10583;DHT22;33679;51.218;6.786;2023-07-13T07:55:40;23.80;99.90
10583;DHT22;33679;51.218;6.786;2023-07-13T07:58:12;23.90;99.90
10583;DHT22;33679;51.218;6.786;2023-07-13T08:00:46;24.10;99.90
10583;DHT22;33679;51.218;6.786;2023-07-13T08:03:20;24.30;99.90
10583;DHT22;33679;51.218;6.786;2023-07-13T08:05:52;24.40;99.90
10583;DHT22;33679;51.218;6.786;2023-07-13T08:08:25;24.40;99.90
10583;DHT22;33679;51.218;6.786;2023-07-13T08:10:57;24.50;99.90
10583;DHT22;33679;51.218;6.786;2023-07-13T08:13:30;24.60;99.90
10583;DHT22;33679;51.218;6.786;2023-07-13T08:16:04;24.70;99.90
10583;DHT22;33679;51.218;6.786;2023-07-13T08:18:36;24.80;99.90
10583;DHT22;33679;51.218;6.786;2023-07-13T08:21:10;24.80;99.90
10583;DHT22;33679;51.218;6.786;2023-07-13T08:23:43;24.80;99.90
10583;DHT22;33679;51.218;6.786;2023-07-13T08:26:15;24.70;99.90
10583;DHT22;33679;51.218;6.786;2023-07-13T08:28:48;24.80;99.90
10583;DHT22;33679;51.218;6.786;2023-07-13T08:31:21;24.70;99.90
10583;DHT22;33679;51.218;6.786;2023-07-13T08:33:56;24.80;99.90
10583;DHT22;33679;51.218;6.786;2023-07-13T08:36:29;24.90;99.90
10583;DHT22;33679;51.218;6.786;2023-07-13T08:39:01;25.00;99.90
10583;DHT22;33679;51.218;6.786;2023-07-13T08:41:33;25.10;99.90
10583;DHT22;33679;51.218;6.786;2023-07-13T08:44:17;25.20;99.90
10583;DHT22;33679;51.218;6.786;2023-07-13T08:46:57;25.40;99.90
10583;DHT22;33679;51.218;6.786;2023-07-13T08:49:30;25.40;99.90
10583;DHT22;33679;51.218;6.786;2023-07-13T08:52:10;25.50;99.90
10583;DHT22;33679;51.218;6.786;2023-07-13T08:54:45;25.60;99.90
10583;DHT22;33679;51.218;6.786;2023-07-13T08:57:24;25.50;99.90
10583;DHT22;33679;51.218;6.786;2023-07-13T09:00:01;25.50;99.90
10583;DHT22;33679;51.218;6.786;2023-07-13T09:02:44;25.40;99.90
10583;DHT22;33679;51.218;6.786;2023-07-13T09:05:22;25.50;99.90
10583;DHT22;33679;51.218;6.786;2023-07-13T09:08:04;25.60;99.90
10583;DHT22;33679;51.218;6.786;2023-07-13T09:10:44;25.60;99.90
10583;DHT22;33679;51.218;6.786;2023-07-13T09:13:26;25.60;99.90
10583;DHT22;33679;51.218;6.786;2023-07-13T09:16:04;25.60;99.90
10583;DHT22;33679;51.218;6.786;2023-07-13T09:18:44;25.50;99.90
10583;DHT22;33679;51.218;6.786;2023-07-13T09:21:22;25.60;99.90
10583;DHT22;33679;51.218;6.786;2023-07-13T09:24:24;25.60;99.90
10583;DHT22;33679;51.218;6.786;2023-07-13T09:26:54;25.70;99.90
10583;DHT22;33679;51.218;6.786;2023-07-13T09:29:29;25.70;99.90
10583;DHT22;33679;51.218;6.786;2023-07-13T09:32:09;25.70;99.90
10583;DHT22;33679;51.218;6.786;2023-07-13T09:34:50;25.80;99.90
10583;DHT22;33679;51.218;6.786;2023-07-13T09:37:29;25.80;99.90
10583;DHT22;33679;51.218;6.786;2023-07-13T09:40:02;25.80;99.90
10583;DHT22;33679;51.218;6.786;2023-07-13T09:42:36;25.70;99.90
10583;DHT22;33679;51.218;6.786;2023-07-13T09:45:09;25.60;99.90
10583;DHT22;33679;51.218;6.786;2023-07-13T09:47:43;25.60;99.90
10583;DHT22;33679;51.218;6.786;2023-07-13T09:50:17;25.50;99.90
10583;DHT22;33679;51.218;6.786;2023-07-13T09:52:50;25.40;99.90
10583;DHT22;33679;51.218;6.786;2023-07-13T09:55:27;25.40;99.90
10583;DHT22;33679;51.218;6.786;2023-07-13T09:58:06;25.30;99.90
10583;DHT22;33679;51.218;6.786;2023-07-13T10:00:44;25.20;99.90
10583;DHT22;33679;51.218;6.786;2023-07-13T10:03:28;25.30;99.90
10583;DHT22;33679;51.218;6.786;2023-07-13T10:06:12;25.40;99.90
10583;DHT22;33679;51.218;6.786;2023-07-13T10:08:46;25.40;99.90
10583;DHT22;33679;51.218;6.786;2023-07-13T10:11:21;25.40;99.90
10583;DHT22;33679;51.218;6.786;2023-07-13T10:13:56;25.40;99.90
10583;DHT22;33679;51.218;6.786;2023-07-13T10:16:32;25.40;99.90
10583;DHT22;33679;51.218;6.786;2023-07-13T10:19:13;25.50;99.90
10583;DHT22;33679;51.218;6.786;2023-07-13T10:21:52;25.60;99.90
10583;DHT22;33679;51.218;6.786;2023-07-13T10:24:31;25.70;99.90
10583;DHT22;33679;51.218;6.786;2023-07-13T10:27:15;25.80;99.90
10583;DHT22;33679;51.218;6.786;2023-07-13T10:29:52;25.80;99.90
10583;DHT22;33679;51.218;6.786;2023-07-13T10:32:26;25.90;99.90
10583;DHT22;33679;51.218;6.786;2023-07-13T10:34:58;26.00;99.90
10583;DHT22;33679;51.218;6.786;2023-07-13T10:37:42;26.10;99.90
10583;DHT22;33679;51.218;6.786;2023-07-13T10:40:20;26.10;99.90
10583;DHT22;33679;51.218;6.786;2023-07-13T10:42:58;26.10;99.90
10583;DHT22;33679;51.218;6.786;2023-07-13T10:45:35;26.20;99.90
10583;DHT22;33679;51.218;6.786;2023-07-13T10:48:12;26.20;99.90
10583;DHT22;33679;51.218;6.786;2023-07-13T10:50:50;26.20;99.90
10583;DHT22;33679;51.218;6.786;2023-07-13T10:53:30;26.10;99.90
10583;DHT22;33679;51.218;6.786;2023-07-13T10:56:10;26.00;99.90
10583;DHT22;33679;51.218;6.786;2023-07-13T10:59:02;25.90;99.90
10583;DHT22;33679;51.218;6.786;2023-07-13T11:01:49;25.80;99.90
10583;DHT22;33679;51.218;6.786;2023-07-13T11:04:25;25.80;99.90
10583;DHT22;33679;51.218;6.786;2023-07-13T11:06:59;25.80;99.90
10583;DHT22;33679;51.218;6.786;2023-07-13T11:09:43;25.80;99.90
10583;DHT22;33679;51.218;6.786;2023-07-13T11:12:49;25.90;99.90
10583;DHT22;33679;51.218;6.786;2023-07-13T11:15:32;26.10;99.90
10583;DHT22;33679;51.218;6.786;2023-07-13T11:18:22;26.20;99.90
10583;DHT22;33679;51.218;6.786;2023-07-13T11:21:13;26.20;99.90
10583;DHT22;33679;51.218;6.786;2023-07-13T11:23:52;26.30;99.90
10583;DHT22;33679;51.218;6.786;2023-07-13T11:26:50;26.20;99.90
10583;DHT22;33679;51.218;6.786;2023-07-13T11:29:27;26.30;99.90
10583;DHT22;33679;51.218;6.786;2023-07-13T11:32:23;26.30;99.90
10583;DHT22;33679;51.218;6.786;2023-07-13T11:34:57;26.20;99.90
10583;DHT22;33679;51.218;6.786;2023-07-13T11:37:30;26.10;99.90
10583;DHT22;33679;51.218;6.786;2023-07-13T11:40:03;26.10;99.90
10583;DHT22;33679;51.218;6.786;2023-07-13T11:42:38;26.20;99.90
10583;DHT22;33679;51.218;6.786;2023-07-13T11:45:20;26.20;99.90
10583;DHT22;33679;51.218;6.786;2023-07-13T11:47:57;26.10;99.90
10583;DHT22;33679;51.218;6.786;2023-07-13T11:50:31;26.10;99.90
10583;DHT22;33679;51.218;6.786;2023-07-13T11:53:04;26.00;99.90
10583;DHT22;33679;51.218;6.786;2023-07-13T11:55:38;26.00;99.90
10583;DHT22;33679;51.218;6.786;2023-07-13T11:58:14;25.90;99.90
10583;DHT22;33679;51.218;6.786;2023-07-13T12:00:49;25.90;99.90
10583;DHT22;33679;51.218;6.786;2023-07-13T12:03:23;25.90;99.90
10583;DHT22;33679;51.218;6.786;2023-07-13T12:05:58;26.00;99.90
10583;DHT22;33679;51.218;6.786;2023-07-13T12:08:37;26.00;99.90
10583;DHT22;33679;51.218;6.786;2023-07-13T12:11:16;26.00;99.90
10583;DHT22;33679;51.218;6.786;2023-07-13T12:13:50;26.10;99.90
10583;DHT22;33679;51.218;6.786;2023-07-13T12:16:27;26.10;99.90
10583;DHT22;33679;51.218;6.786;2023-07-13T12:19:00;26.20;99.90
10583;DHT22;33679;51.218;6.786;2023-07-13T12:21:37;26.30;99.90
10583;DHT22;33679;51.218;6.786;2023-07-13T12:24:14;26.30;99.90
10583;DHT22;33679;51.218;6.786;2023-07-13T12:26:51;26.30;99.90
10583;DHT22;33679;51.218;6.786;2023-07-13T12:29:26;26.40;99.90
10583;DHT22;33679;51.218;6.786;2023-07-13T12:31:59;26.40;99.90
10583;DHT22;33679;51.218;6.786;2023-07-13T12:34:31;26.40;99.90
10583;DHT22;33679;51.218;6.786;2023-07-13T12:37:11;26.40;99.90
10583;DHT22;33679;51.218;6.786;2023-07-13T12:39:47;26.50;99.70
10583;DHT22;33679;51.218;6.786;2023-07-13T12:42:21;26.50;99.50
10583;DHT22;33679;51.218;6.786;2023-07-13T12:45:01;26.60;99.60
10583;DHT22;33679;51.218;6.786;2023-07-13T12:47:41;26.70;99.40
10583;DHT22;33679;51.218;6.786;2023-07-13T12:50:15;26.90;99.20
10583;DHT22;33679;51.218;6.786;2023-07-13T12:52:51;27.00;99.00
10583;DHT22;33679;51.218;6.786;2023-07-13T12:55:24;27.10;99.00
10583;DHT22;33679;51.218;6.786;2023-07-13T12:57:57;27.10;98.80
10583;DHT22;33679;51.218;6.786;2023-07-13T13:00:35;27.10;98.50
10583;DHT22;33679;51.218;6.786;2023-07-13T13:03:20;27.20;98.60
10583;DHT22;33679;51.218;6.786;2023-07-13T13:06:00;27.20;98.70
10583;DHT22;33679;51.218;6.786;2023-07-13T13:08:36;27.30;98.70
10583;DHT22;33679;51.218;6.786;2023-07-13T13:11:08;27.30;98.60
10583;DHT22;33679;51.218;6.786;2023-07-13T13:13:41;27.30;98.60
10583;DHT22;33679;51.218;6.786;2023-07-13T13:16:21;27.30;98.70
10583;DHT22;33679;51.218;6.786;2023-07-13T13:18:55;27.30;98.80
10583;DHT22;33679;51.218;6.786;2023-07-13T13:21:30;27.20;98.70
10583;DHT22;33679;51.218;6.786;2023-07-13T13:24:11;27.20;98.40
10583;DHT22;33679;51.218;6.786;2023-07-13T13:26:44;27.30;98.30
10583;DHT22;33679;51.218;6.786;2023-07-13T13:29:19;27.20;98.30
10583;DHT22;33679;51.218;6.786;2023-07-13T13:31:54;27.20;98.50
10583;DHT22;33679;51.218;6.786;2023-07-13T13:34:26;27.20;98.30
10583;DHT22;33679;51.218;6.786;2023-07-13T13:36:59;27.10;98.40
10583;DHT22;33679;51.218;6.786;2023-07-13T13:39:31;27.00;98.60
10583;DHT22;33679;51.218;6.786;2023-07-13T13:42:09;26.90;98.90
10583;DHT22;33679;51.218;6.786;2023-07-13T13:44:42;26.80;99.10
10583;DHT22;33679;51.218;6.786;2023-07-13T13:47:26;26.80;99.10
10583;DHT22;33679;51.218;6.786;2023-07-13T13:49:59;26.90;99.20
10583;DHT22;33679;51.218;6.786;2023-07-13T13:52:32;26.90;99.00
10583;DHT22;33679;51.218;6.786;2023-07-13T13:55:12;27.00;98.50
10583;DHT22;33679;51.218;6.786;2023-07-13T13:57:45;27.00;97.80
10583;DHT22;33679;51.218;6.786;2023-07-13T14:00:20;27.10;97.70
10583;DHT22;33679;51.218;6.786;2023-07-13T14:02:54;27.10;97.80
10583;DHT22;33679;51.218;6.786;2023-07-13T14:05:28;27.10;97.90
10583;DHT22;33679;51.218;6.786;2023-07-13T14:08:01;27.10;98.00
10583;DHT22;33679;51.218;6.786;2023-07-13T14:10:33;27.10;98.20
10583;DHT22;33679;51.218;6.786;2023-07-13T14:13:07;27.20;98.40
10583;DHT22;33679;51.218;6.786;2023-07-13T14:15:48;27.30;98.40
10583;DHT22;33679;51.218;6.786;2023-07-13T14:18:22;27.40;98.40
10583;DHT22;33679;51.218;6.786;2023-07-13T14:20:55;27.50;98.30
10583;DHT22;33679;51.218;6.786;2023-07-13T14:23:27;27.60;98.40
10583;DHT22;33679;51.218;6.786;2023-07-13T14:25:59;27.60;98.40
10583;DHT22;33679;51.218;6.786;2023-07-13T14:28:32;27.60;98.40
10583;DHT22;33679;51.218;6.786;2023-07-13T14:31:04;27.60;98.40
10583;DHT22;33679;51.218;6.786;2023-07-13T14:33:43;27.50;98.60
10583;DHT22;33679;51.218;6.786;2023-07-13T14:36:27;27.50;98.60
10583;DHT22;33679;51.218;6.786;2023-07-13T14:39:05;27.40;98.90
10583;DHT22;33679;51.218;6.786;2023-07-13T14:41:40;27.40;98.80
10583;DHT22;33679;51.218;6.786;2023-07-13T14:44:13;27.30;98.50
10583;DHT22;33679;51.218;6.786;2023-07-13T14:46:46;27.30;98.60
10583;DHT22;33679;51.218;6.786;2023-07-13T14:49:24;27.20;98.50
10583;DHT22;33679;51.218;6.786;2023-07-13T14:51:59;27.10;98.60
10583;DHT22;33679;51.218;6.786;2023-07-13T14:54:31;27.10;98.70
10583;DHT22;33679;51.218;6.786;2023-07-13T14:57:08;27.10;98.90
10583;DHT22;33679;51.218;6.786;2023-07-13T14:59:43;27.00;99.90
10583;DHT22;33679;51.218;6.786;2023-07-13T15:02:19;26.90;99.90
10583;DHT22;33679;51.218;6.786;2023-07-13T15:04:58;26.60;99.90
10583;DHT22;33679;51.218;6.786;2023-07-13T15:07:32;26.40;99.90
10583;DHT22;33679;51.218;6.786;2023-07-13T15:10:13;26.10;99.90
10583;DHT22;33679;51.218;6.786;2023-07-13T15:12:50;26.00;99.90
10583;DHT22;33679;51.218;6.786;2023-07-13T15:15:23;25.80;99.90
10583;DHT22;33679;51.218;6.786;2023-07-13T15:17:55;25.60;99.90
10583;DHT22;33679;51.218;6.786;2023-07-13T15:20:31;25.50;99.90
10583;DHT22;33679;51.218;6.786;2023-07-13T15:23:05;25.40;99.90
10583;DHT22;33679;51.218;6.786;2023-07-13T15:25:37;25.40;99.90
10583;DHT22;33679;51.218;6.786;2023-07-13T15:28:12;25.40;99.90
10583;DHT22;33679;51.218;6.786;2023-07-13T15:30:47;25.40;99.90
10583;DHT22;33679;51.218;6.786;2023-07-13T15:33:26;25.40;99.90
10583;DHT22;33679;51.218;6.786;2023-07-13T15:36:00;25.30;99.90
10583;DHT22;33679;51.218;6.786;2023-07-13T15:38:36;25.30;99.90
10583;DHT22;33679;51.218;6.786;2023-07-13T15:41:16;25.20;99.90
10583;DHT22;33679;51.218;6.786;2023-07-13T15:43:49;25.10;99.90
10583;DHT22;33679;51.218;6.786;2023-07-13T15:46:23;25.00;99.90
10583;DHT22;33679;51.218;6.786;2023-07-13T15:48:57;25.10;99.90
10583;DHT22;33679;51.218;6.786;2023-07-13T15:51:34;25.00;99.90
10583;DHT22;33679;51.218;6.786;2023-07-13T15:54:12;25.00;99.90
10583;DHT22;33679;51.218;6.786;2023-07-13T15:56:52;25.00;99.90
10583;DHT22;33679;51.218;6.786;2023-07-13T15:59:25;24.90;99.90
10583;DHT22;33679;51.218;6.786;2023-07-13T16:01:57;24.80;99.90
10583;DHT22;33679;51.218;6.786;2023-07-13T16:04:29;24.90;99.90
10583;DHT22;33679;51.218;6.786;2023-07-13T16:07:07;24.90;99.90
10583;DHT22;33679;51.218;6.786;2023-07-13T16:09:41;24.80;99.90
10583;DHT22;33679;51.218;6.786;2023-07-13T16:12:14;24.80;99.90
10583;DHT22;33679;51.218;6.786;2023-07-13T16:14:46;24.80;99.90
10583;DHT22;33679;51.218;6.786;2023-07-13T16:17:20;24.80;99.90
10583;DHT22;33679;51.218;6.786;2023-07-13T16:19:54;24.70;99.90
10583;DHT22;33679;51.218;6.786;2023-07-13T16:22:28;24.70;99.90